sensor_id;sensor_type;location;lat;lon;timestamp;temperature;humidity
75170;SHT31;63749;49.186;9.222;2023-02-12T00:02:14;5.78;80.93
75170;SHT31;63749;49.186;9.222;2023-02-12T00:04:39;5.78;80.96
75170;SHT31;63749;49.186;9.222;2023-02-12T00:07:04;5.79;80.93
75170;SHT31;63749;49.186;9.222;2023-02-12T00:09:30;5.79;81.03
75170;SHT31;63749;49.186;9.222;2023-02-12T00:11:55;5.85;80.89
75170;SHT31;63749;49.186;9.222;2023-02-12T00:14:20;5.87;80.76
75170;SHT31;63749;49.186;9.222;2023-02-12T00:16:46;5.88;80.85
75170;SHT31;63749;49.186;9.222;2023-02-12T00:19:11;5.87;80.92
75170;SHT31;63749;49.186;9.222;2023-02-12T00:21:37;5.90;81.09
75170;SHT31;63749;49.186;9.222;2023-02-12T00:24:02;5.91;80.98
75170;SHT31;63749;49.186;9.222;2023-02-12T00:26:27;5.93;80.96
75170;SHT31;63749;49.186;9.222;2023-02-12T00:28:53;5.87;81.15
75170;SHT31;63749;49.186;9.222;2023-02-12T00:31:21;5.88;81.26
75170;SHT31;63749;49.186;9.222;2023-02-12T00:33:47;5.90;81.27
75170;SHT31;63749;49.186;9.222;2023-02-12T00:36:15;5.91;81.12
75170;SHT31;63749;49.186;9.222;2023-02-12T00:38:41;5.93;81.21
75170;SHT31;63749;49.186;9.222;2023-02-12T00:41:07;5.93;80.97
75170;SHT31;63749;49.186;9.222;2023-02-12T00:43:32;5.94;80.95
75170;SHT31;63749;49.186;9.222;2023-02-12T00:45:57;5.94;81.03
75170;SHT31;63749;49.186;9.222;2023-02-12T00:48:23;5.90;81.18
75170;SHT31;63749;49.186;9.222;2023-02-12T00:50:49;5.91;81.07
75170;SHT31;63749;49.186;9.222;2023-02-12T00:53:14;5.94;80.89
75170;SHT31;63749;49.186;9.222;2023-02-12T00:55:40;5.97;80.85
75170;SHT31;63749;49.186;9.222;2023-02-12T00:58:05;5.90;80.89
75170;SHT31;63749;49.186;9.222;2023-02-12T01:00:31;5.90;80.94
75170;SHT31;63749;49.186;9.222;2023-02-12T01:02:56;5.91;80.92
75170;SHT31;63749;49.186;9.222;2023-02-12T01:05:22;5.90;80.90
75170;SHT31;63749;49.186;9.222;2023-02-12T01:07:51;5.88;81.09
75170;SHT31;63749;49.186;9.222;2023-02-12T01:10:18;5.88;81.12
75170;SHT31;63749;49.186;9.222;2023-02-12T01:12:45;5.84;81.15
75170;SHT31;63749;49.186;9.222;2023-02-12T01:15:11;5.81;81.12
75170;SHT31;63749;49.186;9.222;2023-02-12T01:17:37;5.81;81.20
75170;SHT31;63749;49.186;9.222;2023-02-12T01:20:03;5.81;80.74
75170;SHT31;63749;49.186;9.222;2023-02-12T01:22:33;5.73;81.15
75170;SHT31;63749;49.186;9.222;2023-02-12T01:24:58;5.74;81.10
75170;SHT31;63749;49.186;9.222;2023-02-12T01:27:23;5.78;80.91
75170;SHT31;63749;49.186;9.222;2023-02-12T01:29:49;5.71;81.03
75170;SHT31;63749;49.186;9.222;2023-02-12T01:32:14;5.70;81.21
75170;SHT31;63749;49.186;9.222;2023-02-12T01:34:39;5.65;81.28
75170;SHT31;63749;49.186;9.222;2023-02-12T01:37:05;5.63;81.43
75170;SHT31;63749;49.186;9.222;2023-02-12T01:39:30;5.65;81.42
75170;SHT31;63749;49.186;9.222;2023-02-12T01:41:55;5.67;81.21
75170;SHT31;63749;49.186;9.222;2023-02-12T01:44:24;5.65;81.46
75170;SHT31;63749;49.186;9.222;2023-02-12T01:47:11;5.65;81.72
75170;SHT31;63749;49.186;9.222;2023-02-12T01:49:41;5.64;81.82
75170;SHT31;63749;49.186;9.222;2023-02-12T01:54:36;5.64;81.78
75170;SHT31;63749;49.186;9.222;2023-02-12T01:57:03;5.64;81.79
75170;SHT31;63749;49.186;9.222;2023-02-12T01:59:30;5.67;81.79
75170;SHT31;63749;49.186;9.222;2023-02-12T02:01:56;5.67;81.67
75170;SHT31;63749;49.186;9.222;2023-02-12T02:04:26;5.65;81.79
75170;SHT31;63749;49.186;9.222;2023-02-12T02:06:57;5.68;81.74
75170;SHT31;63749;49.186;9.222;2023-02-12T02:09:24;5.65;81.86
75170;SHT31;63749;49.186;9.222;2023-02-12T02:11:49;5.61;82.02
75170;SHT31;63749;49.186;9.222;2023-02-12T02:14:34;5.60;82.11
75170;SHT31;63749;49.186;9.222;2023-02-12T02:19:49;5.65;82.15
75170;SHT31;63749;49.186;9.222;2023-02-12T02:33:58;5.68;82.32
75170;SHT31;63749;49.186;9.222;2023-02-12T02:36:37;5.67;82.32
75170;SHT31;63749;49.186;9.222;2023-02-12T02:41:45;5.65;82.35
75170;SHT31;63749;49.186;9.222;2023-02-12T02:44:17;5.60;82.56
75170;SHT31;63749;49.186;9.222;2023-02-12T02:46:48;5.56;82.63
75170;SHT31;63749;49.186;9.222;2023-02-12T02:49:22;5.53;82.82
75170;SHT31;63749;49.186;9.222;2023-02-12T02:51:51;5.54;82.93
75170;SHT31;63749;49.186;9.222;2023-02-12T02:54:24;5.50;82.81
75170;SHT31;63749;49.186;9.222;2023-02-12T02:56:54;5.47;83.10
75170;SHT31;63749;49.186;9.222;2023-02-12T02:59:26;5.46;83.25
75170;SHT31;63749;49.186;9.222;2023-02-12T03:02:00;5.40;83.33
75170;SHT31;63749;49.186;9.222;2023-02-12T03:04:32;5.39;83.40
75170;SHT31;63749;49.186;9.222;2023-02-12T03:07:20;5.40;83.27
75170;SHT31;63749;49.186;9.222;2023-02-12T03:09:55;5.39;83.48
75170;SHT31;63749;49.186;9.222;2023-02-12T03:12:30;5.33;83.77
75170;SHT31;63749;49.186;9.222;2023-02-12T03:15:16;5.33;83.73
75170;SHT31;63749;49.186;9.222;2023-02-12T03:17:46;5.35;83.78
75170;SHT31;63749;49.186;9.222;2023-02-12T03:20:19;5.39;83.67
75170;SHT31;63749;49.186;9.222;2023-02-12T03:22:57;5.42;83.55
75170;SHT31;63749;49.186;9.222;2023-02-12T03:25:32;5.42;83.62
75170;SHT31;63749;49.186;9.222;2023-02-12T03:30:53;5.27;84.25
75170;SHT31;63749;49.186;9.222;2023-02-12T03:36:42;5.22;84.35
75170;SHT31;63749;49.186;9.222;2023-02-12T03:44:48;5.23;84.56
75170;SHT31;63749;49.186;9.222;2023-02-12T03:50:14;5.25;84.66
75170;SHT31;63749;49.186;9.222;2023-02-12T03:52:42;5.27;84.42
75170;SHT31;63749;49.186;9.222;2023-02-12T03:55:08;5.30;84.24
75170;SHT31;63749;49.186;9.222;2023-02-12T03:57:48;5.27;84.36
75170;SHT31;63749;49.186;9.222;2023-02-12T04:00:18;5.32;84.24
75170;SHT31;63749;49.186;9.222;2023-02-12T04:02:44;5.30;84.28
75170;SHT31;63749;49.186;9.222;2023-02-12T04:05:25;5.29;84.13
75170;SHT31;63749;49.186;9.222;2023-02-12T04:07:52;5.27;84.10
75170;SHT31;63749;49.186;9.222;2023-02-12T04:10:26;5.23;84.36
75170;SHT31;63749;49.186;9.222;2023-02-12T04:13:18;5.23;84.40
75170;SHT31;63749;49.186;9.222;2023-02-12T04:18:52;5.20;84.38
75170;SHT31;63749;49.186;9.222;2023-02-12T04:24:24;5.15;84.59
75170;SHT31;63749;49.186;9.222;2023-02-12T04:27:22;5.13;84.91
75170;SHT31;63749;49.186;9.222;2023-02-12T04:30:02;5.12;84.95
75170;SHT31;63749;49.186;9.222;2023-02-12T04:37:41;5.06;85.36
75170;SHT31;63749;49.186;9.222;2023-02-12T04:40:12;5.09;85.14
75170;SHT31;63749;49.186;9.222;2023-02-12T04:42:42;5.08;85.37
75170;SHT31;63749;49.186;9.222;2023-02-12T04:45:32;5.05;85.54
75170;SHT31;63749;49.186;9.222;2023-02-12T04:47:55;5.04;85.62
75170;SHT31;63749;49.186;9.222;2023-02-12T04:50:21;5.09;85.33
75170;SHT31;63749;49.186;9.222;2023-02-12T04:52:48;5.12;85.31
75170;SHT31;63749;49.186;9.222;2023-02-12T04:55:14;5.11;85.26
75170;SHT31;63749;49.186;9.222;2023-02-12T04:57:41;4.99;85.47
75170;SHT31;63749;49.186;9.222;2023-02-12T05:00:08;5.02;85.59
75170;SHT31;63749;49.186;9.222;2023-02-12T05:02:35;5.06;85.32
75170;SHT31;63749;49.186;9.222;2023-02-12T05:05:00;4.98;85.32
75170;SHT31;63749;49.186;9.222;2023-02-12T05:07:26;4.92;85.71
75170;SHT31;63749;49.186;9.222;2023-02-12T05:09:51;4.91;85.64
75170;SHT31;63749;49.186;9.222;2023-02-12T05:12:17;4.89;85.66
75170;SHT31;63749;49.186;9.222;2023-02-12T05:14:42;4.89;85.77
75170;SHT31;63749;49.186;9.222;2023-02-12T05:17:07;4.89;85.65
75170;SHT31;63749;49.186;9.222;2023-02-12T05:19:34;4.86;85.82
75170;SHT31;63749;49.186;9.222;2023-02-12T05:22:00;4.89;85.62
75170;SHT31;63749;49.186;9.222;2023-02-12T05:24:25;4.91;85.76
75170;SHT31;63749;49.186;9.222;2023-02-12T05:26:51;4.85;86.14
75170;SHT31;63749;49.186;9.222;2023-02-12T05:29:17;4.85;86.14
75170;SHT31;63749;49.186;9.222;2023-02-12T05:31:42;4.89;86.04
75170;SHT31;63749;49.186;9.222;2023-02-12T05:34:09;4.95;85.86
75170;SHT31;63749;49.186;9.222;2023-02-12T05:36:35;4.98;85.64
75170;SHT31;63749;49.186;9.222;2023-02-12T05:39:00;5.02;85.39
75170;SHT31;63749;49.186;9.222;2023-02-12T05:41:26;5.04;85.37
75170;SHT31;63749;49.186;9.222;2023-02-12T05:43:51;5.04;85.33
75170;SHT31;63749;49.186;9.222;2023-02-12T05:46:18;5.05;85.32
75170;SHT31;63749;49.186;9.222;2023-02-12T05:48:44;5.11;85.09
75170;SHT31;63749;49.186;9.222;2023-02-12T05:51:16;5.15;84.99
75170;SHT31;63749;49.186;9.222;2023-02-12T05:53:44;5.13;84.91
75170;SHT31;63749;49.186;9.222;2023-02-12T05:56:16;5.13;85.11
75170;SHT31;63749;49.186;9.222;2023-02-12T05:58:44;5.15;85.03
75170;SHT31;63749;49.186;9.222;2023-02-12T06:01:21;5.22;84.70
75170;SHT31;63749;49.186;9.222;2023-02-12T06:03:47;5.22;84.62
75170;SHT31;63749;49.186;9.222;2023-02-12T06:06:13;5.22;84.69
75170;SHT31;63749;49.186;9.222;2023-02-12T06:08:39;5.22;84.77
75170;SHT31;63749;49.186;9.222;2023-02-12T06:11:07;5.19;84.95
75170;SHT31;63749;49.186;9.222;2023-02-12T06:13:33;5.22;84.80
75170;SHT31;63749;49.186;9.222;2023-02-12T06:15:59;5.22;84.88
75170;SHT31;63749;49.186;9.222;2023-02-12T06:18:25;5.20;84.86
75170;SHT31;63749;49.186;9.222;2023-02-12T06:20:51;5.20;84.84
75170;SHT31;63749;49.186;9.222;2023-02-12T06:23:22;5.22;84.81
75170;SHT31;63749;49.186;9.222;2023-02-12T06:25:49;5.18;84.87
75170;SHT31;63749;49.186;9.222;2023-02-12T06:28:14;5.16;84.85
75170;SHT31;63749;49.186;9.222;2023-02-12T06:30:40;5.09;84.95
75170;SHT31;63749;49.186;9.222;2023-02-12T06:33:05;5.13;85.03
75170;SHT31;63749;49.186;9.222;2023-02-12T06:35:33;5.16;85.06
75170;SHT31;63749;49.186;9.222;2023-02-12T06:37:59;5.08;85.18
75170;SHT31;63749;49.186;9.222;2023-02-12T06:40:24;5.06;85.24
75170;SHT31;63749;49.186;9.222;2023-02-12T06:42:49;5.05;85.37
75170;SHT31;63749;49.186;9.222;2023-02-12T06:45:15;5.08;85.27
75170;SHT31;63749;49.186;9.222;2023-02-12T06:47:40;5.11;85.26
75170;SHT31;63749;49.186;9.222;2023-02-12T06:50:06;5.04;85.46
75170;SHT31;63749;49.186;9.222;2023-02-12T06:52:31;5.15;85.15
75170;SHT31;63749;49.186;9.222;2023-02-12T06:54:56;5.11;85.29
75170;SHT31;63749;49.186;9.222;2023-02-12T06:57:22;5.12;85.33
75170;SHT31;63749;49.186;9.222;2023-02-12T06:59:48;5.16;85.13
75170;SHT31;63749;49.186;9.222;2023-02-12T07:02:13;5.15;85.09
75170;SHT31;63749;49.186;9.222;2023-02-12T07:04:39;5.20;85.16
75170;SHT31;63749;49.186;9.222;2023-02-12T07:07:05;5.13;85.13
75170;SHT31;63749;49.186;9.222;2023-02-12T07:09:30;5.13;85.45
75170;SHT31;63749;49.186;9.222;2023-02-12T07:11:59;5.11;85.62
75170;SHT31;63749;49.186;9.222;2023-02-12T07:14:24;5.23;85.21
75170;SHT31;63749;49.186;9.222;2023-02-12T07:16:52;5.23;85.09
75170;SHT31;63749;49.186;9.222;2023-02-12T07:19:18;5.35;84.79
75170;SHT31;63749;49.186;9.222;2023-02-12T07:21:43;5.30;84.93
75170;SHT31;63749;49.186;9.222;2023-02-12T07:24:10;5.39;84.93
75170;SHT31;63749;49.186;9.222;2023-02-12T07:26:39;5.42;84.57
75170;SHT31;63749;49.186;9.222;2023-02-12T07:29:05;5.46;84.65
75170;SHT31;63749;49.186;9.222;2023-02-12T07:31:30;5.61;83.99
75170;SHT31;63749;49.186;9.222;2023-02-12T07:33:58;5.57;84.07
75170;SHT31;63749;49.186;9.222;2023-02-12T07:36:25;5.61;84.02
75170;SHT31;63749;49.186;9.222;2023-02-12T07:38:50;5.73;83.62
75170;SHT31;63749;49.186;9.222;2023-02-12T07:41:21;5.77;83.61
75170;SHT31;63749;49.186;9.222;2023-02-12T07:43:51;5.78;83.40
75170;SHT31;63749;49.186;9.222;2023-02-12T07:46:20;5.77;83.50
75170;SHT31;63749;49.186;9.222;2023-02-12T07:48:46;5.81;83.46
75170;SHT31;63749;49.186;9.222;2023-02-12T07:51:13;5.79;83.53
75170;SHT31;63749;49.186;9.222;2023-02-12T07:53:40;5.79;83.46
75170;SHT31;63749;49.186;9.222;2023-02-12T07:56:11;5.78;83.54
75170;SHT31;63749;49.186;9.222;2023-02-12T07:58:38;5.75;83.68
75170;SHT31;63749;49.186;9.222;2023-02-12T08:01:11;5.81;83.33
75170;SHT31;63749;49.186;9.222;2023-02-12T08:03:36;5.94;82.94
75170;SHT31;63749;49.186;9.222;2023-02-12T08:06:07;5.91;82.73
75170;SHT31;63749;49.186;9.222;2023-02-12T08:08:32;5.91;82.69
75170;SHT31;63749;49.186;9.222;2023-02-12T08:10:57;6.01;82.55
75170;SHT31;63749;49.186;9.222;2023-02-12T08:13:23;6.11;82.19
75170;SHT31;63749;49.186;9.222;2023-02-12T08:15:48;6.02;82.28
75170;SHT31;63749;49.186;9.222;2023-02-12T08:18:13;6.09;82.30
75170;SHT31;63749;49.186;9.222;2023-02-12T08:20:39;6.15;82.35
75170;SHT31;63749;49.186;9.222;2023-02-12T08:23:04;6.19;81.97
75170;SHT31;63749;49.186;9.222;2023-02-12T08:25:29;6.19;81.98
75170;SHT31;63749;49.186;9.222;2023-02-12T08:27:55;6.33;81.82
75170;SHT31;63749;49.186;9.222;2023-02-12T08:30:20;6.45;81.19
75170;SHT31;63749;49.186;9.222;2023-02-12T08:32:48;6.49;80.88
75170;SHT31;63749;49.186;9.222;2023-02-12T08:35:13;6.54;81.08
75170;SHT31;63749;49.186;9.222;2023-02-12T08:37:39;6.52;81.15
75170;SHT31;63749;49.186;9.222;2023-02-12T08:40:04;6.62;80.92
75170;SHT31;63749;49.186;9.222;2023-02-12T08:42:30;6.60;80.99
75170;SHT31;63749;49.186;9.222;2023-02-12T08:44:55;6.56;81.08
75170;SHT31;63749;49.186;9.222;2023-02-12T08:47:21;6.64;81.08
75170;SHT31;63749;49.186;9.222;2023-02-12T08:49:46;6.73;80.73
75170;SHT31;63749;49.186;9.222;2023-02-12T08:52:11;6.77;81.04
75170;SHT31;63749;49.186;9.222;2023-02-12T08:54:37;6.76;81.51
75170;SHT31;63749;49.186;9.222;2023-02-12T08:57:02;6.77;81.10
75170;SHT31;63749;49.186;9.222;2023-02-12T08:59:28;6.67;81.64
75170;SHT31;63749;49.186;9.222;2023-02-12T09:01:54;6.72;81.46
75170;SHT31;63749;49.186;9.222;2023-02-12T09:04:24;6.76;81.40
75170;SHT31;63749;49.186;9.222;2023-02-12T09:06:52;6.81;82.64
75170;SHT31;63749;49.186;9.222;2023-02-12T09:09:18;6.93;82.29
75170;SHT31;63749;49.186;9.222;2023-02-12T09:11:44;6.91;81.22
75170;SHT31;63749;49.186;9.222;2023-02-12T09:14:14;7.08;80.30
75170;SHT31;63749;49.186;9.222;2023-02-12T09:16:40;7.07;80.84
75170;SHT31;63749;49.186;9.222;2023-02-12T09:19:06;7.11;80.10
75170;SHT31;63749;49.186;9.222;2023-02-12T09:21:32;7.19;79.98
75170;SHT31;63749;49.186;9.222;2023-02-12T09:23:58;7.22;79.75
75170;SHT31;63749;49.186;9.222;2023-02-12T09:26:24;7.32;79.40
75170;SHT31;63749;49.186;9.222;2023-02-12T09:28:50;7.38;79.09
75170;SHT31;63749;49.186;9.222;2023-02-12T09:31:18;7.36;79.28
75170;SHT31;63749;49.186;9.222;2023-02-12T09:33:45;7.19;79.28
75170;SHT31;63749;49.186;9.222;2023-02-12T09:36:13;7.34;79.12
75170;SHT31;63749;49.186;9.222;2023-02-12T09:38:38;7.51;78.56
75170;SHT31;63749;49.186;9.222;2023-02-12T09:43:54;7.45;78.71
75170;SHT31;63749;49.186;9.222;2023-02-12T09:52:02;7.61;78.68
75170;SHT31;63749;49.186;9.222;2023-02-12T09:54:35;7.61;78.55
75170;SHT31;63749;49.186;9.222;2023-02-12T09:57:04;7.73;78.31
75170;SHT31;63749;49.186;9.222;2023-02-12T09:59:38;7.66;78.55
75170;SHT31;63749;49.186;9.222;2023-02-12T10:02:14;7.66;78.67
75170;SHT31;63749;49.186;9.222;2023-02-12T10:04:41;7.76;78.36
75170;SHT31;63749;49.186;9.222;2023-02-12T10:10:06;7.53;79.17
75170;SHT31;63749;49.186;9.222;2023-02-12T10:15:18;7.65;79.10
75170;SHT31;63749;49.186;9.222;2023-02-12T10:18:05;7.59;78.79
75170;SHT31;63749;49.186;9.222;2023-02-12T10:21:05;7.70;78.29
75170;SHT31;63749;49.186;9.222;2023-02-12T10:23:46;7.76;78.22
75170;SHT31;63749;49.186;9.222;2023-02-12T10:28:44;7.84;77.95
75170;SHT31;63749;49.186;9.222;2023-02-12T10:31:20;7.87;77.81
75170;SHT31;63749;49.186;9.222;2023-02-12T10:33:49;7.94;77.79
75170;SHT31;63749;49.186;9.222;2023-02-12T10:41:31;8.24;76.94
75170;SHT31;63749;49.186;9.222;2023-02-12T10:44:00;8.33;76.99
75170;SHT31;63749;49.186;9.222;2023-02-12T10:46:28;8.52;76.46
75170;SHT31;63749;49.186;9.222;2023-02-12T10:48:55;8.65;76.07
75170;SHT31;63749;49.186;9.222;2023-02-12T10:54:41;8.84;75.84
75170;SHT31;63749;49.186;9.222;2023-02-12T10:59:44;8.90;75.49
75170;SHT31;63749;49.186;9.222;2023-02-12T11:02:31;8.84;75.47
75170;SHT31;63749;49.186;9.222;2023-02-12T11:04:58;9.02;75.19
75170;SHT31;63749;49.186;9.222;2023-02-12T11:07:26;9.12;75.28
75170;SHT31;63749;49.186;9.222;2023-02-12T11:09:53;9.30;74.53
75170;SHT31;63749;49.186;9.222;2023-02-12T11:12:33;9.44;74.53
75170;SHT31;63749;49.186;9.222;2023-02-12T11:17:59;9.47;73.73
75170;SHT31;63749;49.186;9.222;2023-02-12T11:20:37;9.52;74.02
75170;SHT31;63749;49.186;9.222;2023-02-12T11:23:06;9.78;73.06
75170;SHT31;63749;49.186;9.222;2023-02-12T11:25:57;9.79;72.72
75170;SHT31;63749;49.186;9.222;2023-02-12T11:28:22;9.86;73.05
75170;SHT31;63749;49.186;9.222;2023-02-12T11:31:00;9.98;72.39
75170;SHT31;63749;49.186;9.222;2023-02-12T11:33:35;9.99;72.23
75170;SHT31;63749;49.186;9.222;2023-02-12T11:36:22;10.33;71.06
75170;SHT31;63749;49.186;9.222;2023-02-12T11:38:53;10.17;71.61
75170;SHT31;63749;49.186;9.222;2023-02-12T11:43:49;10.29;71.48
75170;SHT31;63749;49.186;9.222;2023-02-12T11:46:20;10.29;71.07
75170;SHT31;63749;49.186;9.222;2023-02-12T11:48:46;10.57;71.02
75170;SHT31;63749;49.186;9.222;2023-02-12T11:51:19;10.54;70.22
75170;SHT31;63749;49.186;9.222;2023-02-12T11:53:48;10.60;69.93
75170;SHT31;63749;49.186;9.222;2023-02-12T11:56:15;10.74;69.83
75170;SHT31;63749;49.186;9.222;2023-02-12T11:58:41;10.98;69.56
75170;SHT31;63749;49.186;9.222;2023-02-12T12:03:39;11.26;67.86
75170;SHT31;63749;49.186;9.222;2023-02-12T12:06:24;11.30;68.07
75170;SHT31;63749;49.186;9.222;2023-02-12T12:09:12;11.53;67.86
75170;SHT31;63749;49.186;9.222;2023-02-12T12:14:44;11.74;66.36
75170;SHT31;63749;49.186;9.222;2023-02-12T12:20:34;12.10;64.66
75170;SHT31;63749;49.186;9.222;2023-02-12T12:23:10;12.28;64.60
75170;SHT31;63749;49.186;9.222;2023-02-12T12:25:46;12.16;64.20
75170;SHT31;63749;49.186;9.222;2023-02-12T12:31:11;11.89;65.90
75170;SHT31;63749;49.186;9.222;2023-02-12T12:34:03;12.01;65.76
75170;SHT31;63749;49.186;9.222;2023-02-12T12:47:55;12.08;65.33
75170;SHT31;63749;49.186;9.222;2023-02-12T12:59:30;12.20;65.48
75170;SHT31;63749;49.186;9.222;2023-02-12T13:08:01;12.01;65.46
75170;SHT31;63749;49.186;9.222;2023-02-12T13:10:31;12.01;65.38
75170;SHT31;63749;49.186;9.222;2023-02-12T13:13:00;12.14;65.62
75170;SHT31;63749;49.186;9.222;2023-02-12T13:15:41;12.10;66.44
75170;SHT31;63749;49.186;9.222;2023-02-12T13:18:31;12.34;64.85
75170;SHT31;63749;49.186;9.222;2023-02-12T13:24:14;12.18;64.86
75170;SHT31;63749;49.186;9.222;2023-02-12T13:26:49;11.95;65.05
75170;SHT31;63749;49.186;9.222;2023-02-12T13:31:53;12.99;62.48
75170;SHT31;63749;49.186;9.222;2023-02-12T13:34:20;14.10;59.02
75170;SHT31;63749;49.186;9.222;2023-02-12T13:36:47;14.85;56.84
75170;SHT31;63749;49.186;9.222;2023-02-12T13:39:39;15.74;53.84
75170;SHT31;63749;49.186;9.222;2023-02-12T13:49:46;18.17;47.87
75170;SHT31;63749;49.186;9.222;2023-02-12T13:52:28;18.12;46.74
75170;SHT31;63749;49.186;9.222;2023-02-12T13:57:40;17.79;47.87
75170;SHT31;63749;49.186;9.222;2023-02-12T14:03:09;18.03;46.79
75170;SHT31;63749;49.186;9.222;2023-02-12T14:05:34;18.94;44.48
75170;SHT31;63749;49.186;9.222;2023-02-12T14:08:03;17.74;46.78
75170;SHT31;63749;49.186;9.222;2023-02-12T14:10:36;18.12;46.30
75170;SHT31;63749;49.186;9.222;2023-02-12T14:13:21;19.20;43.92
75170;SHT31;63749;49.186;9.222;2023-02-12T14:15:51;20.18;41.72
75170;SHT31;63749;49.186;9.222;2023-02-12T14:20:47;19.38;43.33
75170;SHT31;63749;49.186;9.222;2023-02-12T14:23:26;19.67;42.42
75170;SHT31;63749;49.186;9.222;2023-02-12T14:28:31;19.18;43.33
75170;SHT31;63749;49.186;9.222;2023-02-12T14:33:43;19.60;43.01
75170;SHT31;63749;49.186;9.222;2023-02-12T14:41:36;19.84;41.26
75170;SHT31;63749;49.186;9.222;2023-02-12T14:46:54;20.17;41.28
75170;SHT31;63749;49.186;9.222;2023-02-12T14:54:48;19.88;41.67
75170;SHT31;63749;49.186;9.222;2023-02-12T14:57:26;19.22;43.31
75170;SHT31;63749;49.186;9.222;2023-02-12T15:02:43;19.53;42.74
75170;SHT31;63749;49.186;9.222;2023-02-12T15:05:16;19.78;42.47
75170;SHT31;63749;49.186;9.222;2023-02-12T15:07:46;19.94;42.04
75170;SHT31;63749;49.186;9.222;2023-02-12T15:10:16;19.32;43.36
75170;SHT31;63749;49.186;9.222;2023-02-12T15:13:17;19.32;43.09
75170;SHT31;63749;49.186;9.222;2023-02-12T15:16:06;19.09;43.61
75170;SHT31;63749;49.186;9.222;2023-02-12T15:18:49;19.26;43.54
75170;SHT31;63749;49.186;9.222;2023-02-12T15:21:25;19.47;42.90
75170;SHT31;63749;49.186;9.222;2023-02-12T15:24:06;19.59;42.88
75170;SHT31;63749;49.186;9.222;2023-02-12T15:26:36;19.20;43.44
75170;SHT31;63749;49.186;9.222;2023-02-12T15:29:04;19.33;42.81
75170;SHT31;63749;49.186;9.222;2023-02-12T15:31:30;19.12;43.11
75170;SHT31;63749;49.186;9.222;2023-02-12T15:33:58;19.26;42.88
75170;SHT31;63749;49.186;9.222;2023-02-12T15:36:25;18.72;43.78
75170;SHT31;63749;49.186;9.222;2023-02-12T15:38:57;16.99;47.54
75170;SHT31;63749;49.186;9.222;2023-02-12T15:41:41;15.76;50.90
75170;SHT31;63749;49.186;9.222;2023-02-12T15:44:29;14.53;54.76
75170;SHT31;63749;49.186;9.222;2023-02-12T15:49:34;13.20;59.14
75170;SHT31;63749;49.186;9.222;2023-02-12T15:52:03;12.82;60.19
75170;SHT31;63749;49.186;9.222;2023-02-12T15:54:30;12.55;61.28
75170;SHT31;63749;49.186;9.222;2023-02-12T15:56:56;12.04;63.25
75170;SHT31;63749;49.186;9.222;2023-02-12T15:59:24;11.83;63.82
75170;SHT31;63749;49.186;9.222;2023-02-12T16:01:58;11.58;64.83
75170;SHT31;63749;49.186;9.222;2023-02-12T16:04:25;11.25;66.20
75170;SHT31;63749;49.186;9.222;2023-02-12T16:06:52;11.01;66.98
75170;SHT31;63749;49.186;9.222;2023-02-12T16:09:24;10.90;67.39
75170;SHT31;63749;49.186;9.222;2023-02-12T16:11:53;10.78;67.92
75170;SHT31;63749;49.186;9.222;2023-02-12T16:14:40;10.70;68.19
75170;SHT31;63749;49.186;9.222;2023-02-12T16:19:59;10.39;69.85
75170;SHT31;63749;49.186;9.222;2023-02-12T16:22:42;10.20;70.34
75170;SHT31;63749;49.186;9.222;2023-02-12T16:25:29;10.05;71.03
75170;SHT31;63749;49.186;9.222;2023-02-12T16:28:04;9.99;71.35
75170;SHT31;63749;49.186;9.222;2023-02-12T16:30:33;9.83;71.72
75170;SHT31;63749;49.186;9.222;2023-02-12T16:32:59;9.82;72.45
75170;SHT31;63749;49.186;9.222;2023-02-12T16:35:32;9.70;72.48
75170;SHT31;63749;49.186;9.222;2023-02-12T16:38:03;9.55;72.36
75170;SHT31;63749;49.186;9.222;2023-02-12T16:41:14;9.35;73.62
75170;SHT31;63749;49.186;9.222;2023-02-12T16:43:40;9.17;74.26
75170;SHT31;63749;49.186;9.222;2023-02-12T16:46:08;9.02;74.95
75170;SHT31;63749;49.186;9.222;2023-02-12T16:48:48;8.93;75.39
75170;SHT31;63749;49.186;9.222;2023-02-12T16:51:27;8.77;75.68
75170;SHT31;63749;49.186;9.222;2023-02-12T16:53:54;8.69;76.25
75170;SHT31;63749;49.186;9.222;2023-02-12T16:56:23;8.63;76.75
75170;SHT31;63749;49.186;9.222;2023-02-12T16:58:52;8.45;77.00
75170;SHT31;63749;49.186;9.222;2023-02-12T17:01:24;8.42;77.61
75170;SHT31;63749;49.186;9.222;2023-02-12T17:03:50;8.30;77.89
75170;SHT31;63749;49.186;9.222;2023-02-12T17:06:26;8.13;78.28
75170;SHT31;63749;49.186;9.222;2023-02-12T17:08:51;8.05;78.57
75170;SHT31;63749;49.186;9.222;2023-02-12T17:11:17;7.94;79.13
75170;SHT31;63749;49.186;9.222;2023-02-12T17:13:45;7.89;79.72
75170;SHT31;63749;49.186;9.222;2023-02-12T17:16:10;7.72;79.61
75170;SHT31;63749;49.186;9.222;2023-02-12T17:18:36;7.70;80.74
75170;SHT31;63749;49.186;9.222;2023-02-12T17:21:06;7.73;80.73
75170;SHT31;63749;49.186;9.222;2023-02-12T17:23:32;7.62;80.91
75170;SHT31;63749;49.186;9.222;2023-02-12T17:25:58;7.55;81.11
75170;SHT31;63749;49.186;9.222;2023-02-12T17:28:23;7.49;81.53
75170;SHT31;63749;49.186;9.222;2023-02-12T17:30:50;7.35;81.89
75170;SHT31;63749;49.186;9.222;2023-02-12T17:33:17;7.38;82.12
75170;SHT31;63749;49.186;9.222;2023-02-12T17:35:42;7.21;82.14
75170;SHT31;63749;49.186;9.222;2023-02-12T17:38:08;7.16;82.56
75170;SHT31;63749;49.186;9.222;2023-02-12T17:40:35;7.05;82.85
75170;SHT31;63749;49.186;9.222;2023-02-12T17:43:01;6.97;83.27
75170;SHT31;63749;49.186;9.222;2023-02-12T17:45:27;6.94;83.88
75170;SHT31;63749;49.186;9.222;2023-02-12T17:47:52;6.83;83.78
75170;SHT31;63749;49.186;9.222;2023-02-12T17:50:19;6.80;84.15
75170;SHT31;63749;49.186;9.222;2023-02-12T17:52:44;6.76;84.69
75170;SHT31;63749;49.186;9.222;2023-02-12T17:55:10;6.69;84.77
75170;SHT31;63749;49.186;9.222;2023-02-12T17:57:37;6.62;84.96
75170;SHT31;63749;49.186;9.222;2023-02-12T18:00:04;6.62;85.45
75170;SHT31;63749;49.186;9.222;2023-02-12T18:02:30;6.54;85.45
75170;SHT31;63749;49.186;9.222;2023-02-12T18:04:55;6.40;85.83
75170;SHT31;63749;49.186;9.222;2023-02-12T18:07:21;6.49;86.06
75170;SHT31;63749;49.186;9.222;2023-02-12T18:09:47;6.33;86.41
75170;SHT31;63749;49.186;9.222;2023-02-12T18:12:12;6.29;86.58
75170;SHT31;63749;49.186;9.222;2023-02-12T18:14:37;6.22;86.77
75170;SHT31;63749;49.186;9.222;2023-02-12T18:17:03;6.14;87.05
75170;SHT31;63749;49.186;9.222;2023-02-12T18:19:29;6.04;87.42
75170;SHT31;63749;49.186;9.222;2023-02-12T18:21:55;5.97;87.44
75170;SHT31;63749;49.186;9.222;2023-02-12T18:24:20;5.93;87.98
75170;SHT31;63749;49.186;9.222;2023-02-12T18:26:46;5.87;88.37
75170;SHT31;63749;49.186;9.222;2023-02-12T18:29:11;5.94;88.68
75170;SHT31;63749;49.186;9.222;2023-02-12T18:31:37;6.01;88.63
75170;SHT31;63749;49.186;9.222;2023-02-12T18:34:06;5.98;88.46
75170;SHT31;63749;49.186;9.222;2023-02-12T18:36:32;5.94;88.74
75170;SHT31;63749;49.186;9.222;2023-02-12T18:38:57;5.95;88.90
75170;SHT31;63749;49.186;9.222;2023-02-12T18:41:27;6.02;88.66
75170;SHT31;63749;49.186;9.222;2023-02-12T18:43:52;6.01;88.60